Terminal Aerodrome Forecast
Issued by NWS Quad Cities IA IL

Home | Current Version | Previous Version | Text Only | Print | Product List | Glossary On
Versions: 1 2 3 4 5 6 7 8 9 10 11 12 13 14 15 16 17 18 19 20 21 22 23 24 25 26 27
000
FTUS43 KDVN 230500
TAFMLI
TAF
KMLI 230520Z 2306/2406 VRB02KT 6SM BR BKN060
     FM230900 VRB02KT 3SM BR BKN015
     FM231500 13005KT 6SM BR VCTS BKN025CB
     FM231700 15006KT P6SM BKN050=

USA.gov is the U.S. government's official web portal to all federal, state and local government web resources and services.